sensor_id;sensor_type;location;lat;lon;timestamp;P1;durP1;ratioP1;P2;durP2;ratioP2
24650;SDS011;12783;48.824;8.662;2023-05-08T00:00:59;9.73;;;7.18;;
24650;SDS011;12783;48.824;8.662;2023-05-08T00:03:26;9.32;;;7.18;;
24650;SDS011;12783;48.824;8.662;2023-05-08T00:05:53;9.98;;;7.40;;
24650;SDS011;12783;48.824;8.662;2023-05-08T00:08:21;8.68;;;6.93;;
24650;SDS011;12783;48.824;8.662;2023-05-08T00:10:48;9.02;;;7.25;;
24650;SDS011;12783;48.824;8.662;2023-05-08T00:13:15;9.68;;;7.07;;
24650;SDS011;12783;48.824;8.662;2023-05-08T00:15:42;9.60;;;6.80;;
24650;SDS011;12783;48.824;8.662;2023-05-08T00:18:09;8.57;;;6.88;;
24650;SDS011;12783;48.824;8.662;2023-05-08T00:20:36;10.35;;;7.25;;
24650;SDS011;12783;48.824;8.662;2023-05-08T00:23:03;9.93;;;7.30;;
24650;SDS011;12783;48.824;8.662;2023-05-08T00:25:30;12.15;;;7.80;;
24650;SDS011;12783;48.824;8.662;2023-05-08T00:27:57;11.25;;;7.50;;
24650;SDS011;12783;48.824;8.662;2023-05-08T00:30:25;9.95;;;7.80;;
24650;SDS011;12783;48.824;8.662;2023-05-08T00:32:52;9.27;;;7.50;;
24650;SDS011;12783;48.824;8.662;2023-05-08T00:35:19;11.40;;;7.72;;
24650;SDS011;12783;48.824;8.662;2023-05-08T00:37:46;11.02;;;7.80;;
24650;SDS011;12783;48.824;8.662;2023-05-08T00:40:13;13.52;;;7.93;;
24650;SDS011;12783;48.824;8.662;2023-05-08T00:42:41;10.40;;;7.88;;
24650;SDS011;12783;48.824;8.662;2023-05-08T00:45:08;12.38;;;8.65;;
24650;SDS011;12783;48.824;8.662;2023-05-08T00:47:35;10.40;;;8.05;;
24650;SDS011;12783;48.824;8.662;2023-05-08T00:50:02;13.30;;;8.35;;
24650;SDS011;12783;48.824;8.662;2023-05-08T00:52:30;12.18;;;8.20;;
24650;SDS011;12783;48.824;8.662;2023-05-08T00:54:59;12.60;;;8.10;;
24650;SDS011;12783;48.824;8.662;2023-05-08T00:57:28;11.05;;;8.13;;
24650;SDS011;12783;48.824;8.662;2023-05-08T00:59:58;10.05;;;7.72;;
24650;SDS011;12783;48.824;8.662;2023-05-08T01:02:27;11.38;;;7.57;;
24650;SDS011;12783;48.824;8.662;2023-05-08T01:04:56;11.93;;;7.65;;
24650;SDS011;12783;48.824;8.662;2023-05-08T01:07:23;12.60;;;7.32;;
24650;SDS011;12783;48.824;8.662;2023-05-08T01:09:50;9.35;;;7.40;;
24650;SDS011;12783;48.824;8.662;2023-05-08T01:15:04;12.52;;;7.03;;
24650;SDS011;12783;48.824;8.662;2023-05-08T01:18:03;9.85;;;7.47;;
24650;SDS011;12783;48.824;8.662;2023-05-08T01:21:17;9.43;;;7.22;;
24650;SDS011;12783;48.824;8.662;2023-05-08T01:30:12;17.23;;;8.88;;
24650;SDS011;12783;48.824;8.662;2023-05-08T01:33:12;12.98;;;8.40;;
24650;SDS011;12783;48.824;8.662;2023-05-08T01:35:48;9.82;;;7.82;;
24650;SDS011;12783;48.824;8.662;2023-05-08T01:38:20;12.73;;;7.65;;
24650;SDS011;12783;48.824;8.662;2023-05-08T01:41:07;9.30;;;7.35;;
24650;SDS011;12783;48.824;8.662;2023-05-08T01:46:19;11.25;;;7.00;;
24650;SDS011;12783;48.824;8.662;2023-05-08T01:48:55;10.68;;;6.68;;
24650;SDS011;12783;48.824;8.662;2023-05-08T01:51:33;12.73;;;6.65;;
24650;SDS011;12783;48.824;8.662;2023-05-08T01:54:18;8.65;;;6.47;;
24650;SDS011;12783;48.824;8.662;2023-05-08T01:56:49;8.80;;;6.53;;
24650;SDS011;12783;48.824;8.662;2023-05-08T01:59:21;8.80;;;5.97;;
24650;SDS011;12783;48.824;8.662;2023-05-08T02:01:53;11.07;;;7.22;;
24650;SDS011;12783;48.824;8.662;2023-05-08T02:04:22;8.98;;;6.28;;
24650;SDS011;12783;48.824;8.662;2023-05-08T02:06:50;7.47;;;5.97;;
24650;SDS011;12783;48.824;8.662;2023-05-08T02:09:19;7.07;;;6.15;;
24650;SDS011;12783;48.824;8.662;2023-05-08T02:11:48;8.52;;;6.57;;
24650;SDS011;12783;48.824;8.662;2023-05-08T02:14:17;8.45;;;6.18;;
24650;SDS011;12783;48.824;8.662;2023-05-08T02:16:46;12.25;;;6.13;;
24650;SDS011;12783;48.824;8.662;2023-05-08T02:19:15;10.18;;;6.25;;
24650;SDS011;12783;48.824;8.662;2023-05-08T02:21:45;6.78;;;5.93;;
24650;SDS011;12783;48.824;8.662;2023-05-08T02:24:13;12.95;;;5.70;;
24650;SDS011;12783;48.824;8.662;2023-05-08T02:26:41;7.68;;;6.00;;
24650;SDS011;12783;48.824;8.662;2023-05-08T02:29:10;8.40;;;5.95;;
24650;SDS011;12783;48.824;8.662;2023-05-08T02:31:38;9.95;;;5.80;;
24650;SDS011;12783;48.824;8.662;2023-05-08T02:34:07;7.68;;;5.82;;
24650;SDS011;12783;48.824;8.662;2023-05-08T02:36:36;6.70;;;5.60;;
24650;SDS011;12783;48.824;8.662;2023-05-08T02:39:04;10.75;;;5.63;;
24650;SDS011;12783;48.824;8.662;2023-05-08T02:41:33;7.38;;;5.53;;
24650;SDS011;12783;48.824;8.662;2023-05-08T02:44:02;8.25;;;5.15;;
24650;SDS011;12783;48.824;8.662;2023-05-08T02:49:55;7.50;;;5.50;;
24650;SDS011;12783;48.824;8.662;2023-05-08T02:52:42;7.78;;;5.68;;
24650;SDS011;12783;48.824;8.662;2023-05-08T02:58:04;8.73;;;6.13;;
24650;SDS011;12783;48.824;8.662;2023-05-08T03:00:41;10.55;;;6.13;;
24650;SDS011;12783;48.824;8.662;2023-05-08T03:03:39;10.02;;;6.13;;
24650;SDS011;12783;48.824;8.662;2023-05-08T03:06:15;8.48;;;6.25;;
24650;SDS011;12783;48.824;8.662;2023-05-08T03:08:47;7.00;;;5.93;;
24650;SDS011;12783;48.824;8.662;2023-05-08T03:11:17;7.95;;;5.85;;
24650;SDS011;12783;48.824;8.662;2023-05-08T03:13:49;8.30;;;6.70;;
24650;SDS011;12783;48.824;8.662;2023-05-08T03:16:23;9.18;;;6.00;;
24650;SDS011;12783;48.824;8.662;2023-05-08T03:18:57;9.38;;;6.05;;
24650;SDS011;12783;48.824;8.662;2023-05-08T03:21:29;9.02;;;5.93;;
24650;SDS011;12783;48.824;8.662;2023-05-08T03:23:58;8.50;;;6.15;;
24650;SDS011;12783;48.824;8.662;2023-05-08T03:26:27;7.72;;;6.22;;
24650;SDS011;12783;48.824;8.662;2023-05-08T03:28:54;8.48;;;6.20;;
24650;SDS011;12783;48.824;8.662;2023-05-08T03:31:22;9.38;;;6.30;;
24650;SDS011;12783;48.824;8.662;2023-05-08T03:33:52;10.30;;;6.10;;
24650;SDS011;12783;48.824;8.662;2023-05-08T03:36:21;7.47;;;5.63;;
24650;SDS011;12783;48.824;8.662;2023-05-08T03:38:52;7.55;;;5.93;;
24650;SDS011;12783;48.824;8.662;2023-05-08T03:41:19;8.80;;;6.05;;
24650;SDS011;12783;48.824;8.662;2023-05-08T03:43:46;9.80;;;6.63;;
24650;SDS011;12783;48.824;8.662;2023-05-08T03:46:13;9.02;;;6.97;;
24650;SDS011;12783;48.824;8.662;2023-05-08T03:48:42;8.68;;;6.90;;
24650;SDS011;12783;48.824;8.662;2023-05-08T03:51:10;9.40;;;6.50;;
24650;SDS011;12783;48.824;8.662;2023-05-08T03:53:37;9.07;;;7.13;;
24650;SDS011;12783;48.824;8.662;2023-05-08T03:56:04;9.48;;;7.47;;
24650;SDS011;12783;48.824;8.662;2023-05-08T03:58:33;12.05;;;7.35;;
24650;SDS011;12783;48.824;8.662;2023-05-08T04:06:30;16.48;;;7.70;;
24650;SDS011;12783;48.824;8.662;2023-05-08T04:12:02;53.40;;;7.97;;
24650;SDS011;12783;48.824;8.662;2023-05-08T04:15:02;29.63;;;7.53;;
24650;SDS011;12783;48.824;8.662;2023-05-08T04:17:48;50.75;;;8.13;;
24650;SDS011;12783;48.824;8.662;2023-05-08T04:20:19;96.90;;;10.48;;
24650;SDS011;12783;48.824;8.662;2023-05-08T04:22:49;155.93;;;11.60;;
24650;SDS011;12783;48.824;8.662;2023-05-08T04:25:20;23.77;;;8.32;;
24650;SDS011;12783;48.824;8.662;2023-05-08T04:27:47;148.45;;;9.63;;
24650;SDS011;12783;48.824;8.662;2023-05-08T04:30:16;63.42;;;9.05;;
24650;SDS011;12783;48.824;8.662;2023-05-08T04:32:44;66.15;;;9.98;;
24650;SDS011;12783;48.824;8.662;2023-05-08T04:35:13;73.43;;;9.05;;
24650;SDS011;12783;48.824;8.662;2023-05-08T04:37:40;41.90;;;7.97;;
24650;SDS011;12783;48.824;8.662;2023-05-08T04:40:08;92.03;;;8.40;;
24650;SDS011;12783;48.824;8.662;2023-05-08T04:42:36;16.50;;;7.22;;
24650;SDS011;12783;48.824;8.662;2023-05-08T04:45:05;70.45;;;7.60;;
24650;SDS011;12783;48.824;8.662;2023-05-08T04:47:32;143.23;;;8.75;;
24650;SDS011;12783;48.824;8.662;2023-05-08T04:49:59;132.35;;;8.07;;
24650;SDS011;12783;48.824;8.662;2023-05-08T04:52:28;123.05;;;8.95;;
24650;SDS011;12783;48.824;8.662;2023-05-08T04:54:55;96.18;;;7.30;;
24650;SDS011;12783;48.824;8.662;2023-05-08T04:57:22;67.10;;;7.97;;
24650;SDS011;12783;48.824;8.662;2023-05-08T04:59:49;41.80;;;6.90;;
24650;SDS011;12783;48.824;8.662;2023-05-08T05:02:16;66.32;;;7.00;;
24650;SDS011;12783;48.824;8.662;2023-05-08T05:04:43;12.15;;;6.82;;
24650;SDS011;12783;48.824;8.662;2023-05-08T05:07:10;16.63;;;6.63;;
24650;SDS011;12783;48.824;8.662;2023-05-08T05:09:37;48.00;;;7.07;;
24650;SDS011;12783;48.824;8.662;2023-05-08T05:12:05;29.25;;;6.88;;
24650;SDS011;12783;48.824;8.662;2023-05-08T05:14:32;17.27;;;5.63;;
24650;SDS011;12783;48.824;8.662;2023-05-08T05:16:59;6.57;;;5.80;;
24650;SDS011;12783;48.824;8.662;2023-05-08T05:19:26;7.75;;;5.90;;
24650;SDS011;12783;48.824;8.662;2023-05-08T05:21:53;9.00;;;6.25;;
24650;SDS011;12783;48.824;8.662;2023-05-08T05:24:20;8.25;;;6.63;;
24650;SDS011;12783;48.824;8.662;2023-05-08T05:26:47;8.38;;;6.75;;
24650;SDS011;12783;48.824;8.662;2023-05-08T05:29:13;10.45;;;7.20;;
24650;SDS011;12783;48.824;8.662;2023-05-08T05:31:40;11.43;;;7.03;;
24650;SDS011;12783;48.824;8.662;2023-05-08T05:34:07;9.93;;;7.65;;
24650;SDS011;12783;48.824;8.662;2023-05-08T05:36:34;9.45;;;7.10;;
24650;SDS011;12783;48.824;8.662;2023-05-08T05:39:01;10.80;;;7.72;;
24650;SDS011;12783;48.824;8.662;2023-05-08T05:41:28;11.55;;;8.18;;
24650;SDS011;12783;48.824;8.662;2023-05-08T05:43:56;10.18;;;7.28;;
24650;SDS011;12783;48.824;8.662;2023-05-08T05:46:22;8.35;;;7.00;;
24650;SDS011;12783;48.824;8.662;2023-05-08T05:48:56;12.07;;;8.15;;
24650;SDS011;12783;48.824;8.662;2023-05-08T05:51:24;12.80;;;7.78;;
24650;SDS011;12783;48.824;8.662;2023-05-08T05:53:52;9.75;;;7.38;;
24650;SDS011;12783;48.824;8.662;2023-05-08T05:56:19;10.85;;;8.23;;
24650;SDS011;12783;48.824;8.662;2023-05-08T05:58:48;11.60;;;8.82;;
24650;SDS011;12783;48.824;8.662;2023-05-08T06:01:15;12.95;;;7.93;;
24650;SDS011;12783;48.824;8.662;2023-05-08T06:03:42;8.73;;;7.28;;
24650;SDS011;12783;48.824;8.662;2023-05-08T06:06:09;11.80;;;8.07;;
24650;SDS011;12783;48.824;8.662;2023-05-08T06:08:36;11.73;;;8.00;;
24650;SDS011;12783;48.824;8.662;2023-05-08T06:11:03;11.18;;;7.72;;
24650;SDS011;12783;48.824;8.662;2023-05-08T06:13:30;10.35;;;7.78;;
24650;SDS011;12783;48.824;8.662;2023-05-08T06:15:57;15.35;;;8.15;;
24650;SDS011;12783;48.824;8.662;2023-05-08T06:18:24;11.00;;;7.28;;
24650;SDS011;12783;48.824;8.662;2023-05-08T06:20:55;10.45;;;7.55;;
24650;SDS011;12783;48.824;8.662;2023-05-08T06:23:23;15.40;;;7.82;;
24650;SDS011;12783;48.824;8.662;2023-05-08T06:25:50;13.70;;;7.68;;
24650;SDS011;12783;48.824;8.662;2023-05-08T06:28:18;9.88;;;6.85;;
24650;SDS011;12783;48.824;8.662;2023-05-08T06:30:45;8.70;;;6.50;;
24650;SDS011;12783;48.824;8.662;2023-05-08T06:33:12;7.68;;;6.63;;
24650;SDS011;12783;48.824;8.662;2023-05-08T06:35:39;7.50;;;5.93;;
24650;SDS011;12783;48.824;8.662;2023-05-08T06:38:05;9.70;;;5.88;;
24650;SDS011;12783;48.824;8.662;2023-05-08T06:40:32;9.23;;;6.13;;
24650;SDS011;12783;48.824;8.662;2023-05-08T06:42:59;6.47;;;5.28;;
24650;SDS011;12783;48.824;8.662;2023-05-08T06:45:26;11.27;;;6.03;;
24650;SDS011;12783;48.824;8.662;2023-05-08T06:47:53;6.20;;;5.47;;
24650;SDS011;12783;48.824;8.662;2023-05-08T06:50:20;8.63;;;5.72;;
24650;SDS011;12783;48.824;8.662;2023-05-08T06:52:47;126.93;;;84.13;;
24650;SDS011;12783;48.824;8.662;2023-05-08T06:55:14;23.33;;;16.83;;
24650;SDS011;12783;48.824;8.662;2023-05-08T06:57:41;6.15;;;4.90;;
24650;SDS011;12783;48.824;8.662;2023-05-08T07:00:08;7.45;;;4.35;;
24650;SDS011;12783;48.824;8.662;2023-05-08T07:02:35;6.22;;;4.57;;
24650;SDS011;12783;48.824;8.662;2023-05-08T07:05:03;6.03;;;4.82;;
24650;SDS011;12783;48.824;8.662;2023-05-08T07:07:30;6.75;;;4.95;;
24650;SDS011;12783;48.824;8.662;2023-05-08T07:09:57;12.13;;;6.25;;
24650;SDS011;12783;48.824;8.662;2023-05-08T07:12:24;9.75;;;6.90;;
24650;SDS011;12783;48.824;8.662;2023-05-08T07:14:51;10.38;;;7.50;;
24650;SDS011;12783;48.824;8.662;2023-05-08T07:17:17;14.35;;;8.90;;
24650;SDS011;12783;48.824;8.662;2023-05-08T07:19:48;16.85;;;10.32;;
24650;SDS011;12783;48.824;8.662;2023-05-08T07:22:16;29.85;;;12.05;;
24650;SDS011;12783;48.824;8.662;2023-05-08T07:24:44;24.00;;;11.35;;
24650;SDS011;12783;48.824;8.662;2023-05-08T07:27:11;29.00;;;13.48;;
24650;SDS011;12783;48.824;8.662;2023-05-08T07:29:39;21.35;;;10.82;;
24650;SDS011;12783;48.824;8.662;2023-05-08T07:32:07;21.45;;;11.18;;
24650;SDS011;12783;48.824;8.662;2023-05-08T07:34:34;21.98;;;10.55;;
24650;SDS011;12783;48.824;8.662;2023-05-08T07:37:01;21.35;;;10.32;;
24650;SDS011;12783;48.824;8.662;2023-05-08T07:39:28;30.52;;;11.75;;
24650;SDS011;12783;48.824;8.662;2023-05-08T07:41:55;25.27;;;10.93;;
24650;SDS011;12783;48.824;8.662;2023-05-08T07:44:22;17.90;;;9.75;;
24650;SDS011;12783;48.824;8.662;2023-05-08T07:46:49;16.40;;;9.43;;
24650;SDS011;12783;48.824;8.662;2023-05-08T07:49:16;16.90;;;9.10;;
24650;SDS011;12783;48.824;8.662;2023-05-08T07:51:43;16.15;;;9.23;;
24650;SDS011;12783;48.824;8.662;2023-05-08T07:54:09;13.93;;;9.07;;
24650;SDS011;12783;48.824;8.662;2023-05-08T07:56:36;14.77;;;8.55;;
24650;SDS011;12783;48.824;8.662;2023-05-08T07:59:03;15.00;;;8.82;;
24650;SDS011;12783;48.824;8.662;2023-05-08T08:01:30;13.95;;;8.25;;
24650;SDS011;12783;48.824;8.662;2023-05-08T08:03:57;10.32;;;7.00;;
24650;SDS011;12783;48.824;8.662;2023-05-08T08:06:24;8.65;;;5.18;;
24650;SDS011;12783;48.824;8.662;2023-05-08T08:08:51;5.60;;;4.25;;
24650;SDS011;12783;48.824;8.662;2023-05-08T08:11:18;6.03;;;4.30;;
24650;SDS011;12783;48.824;8.662;2023-05-08T08:13:44;7.97;;;4.45;;
24650;SDS011;12783;48.824;8.662;2023-05-08T08:16:11;4.78;;;4.05;;
24650;SDS011;12783;48.824;8.662;2023-05-08T08:18:38;6.82;;;4.68;;
24650;SDS011;12783;48.824;8.662;2023-05-08T08:21:05;5.85;;;4.40;;
24650;SDS011;12783;48.824;8.662;2023-05-08T08:23:33;9.45;;;4.07;;
24650;SDS011;12783;48.824;8.662;2023-05-08T08:25:59;7.07;;;4.28;;
24650;SDS011;12783;48.824;8.662;2023-05-08T08:28:26;5.85;;;4.20;;
24650;SDS011;12783;48.824;8.662;2023-05-08T08:30:53;5.10;;;3.92;;
24650;SDS011;12783;48.824;8.662;2023-05-08T08:33:20;4.93;;;3.60;;
24650;SDS011;12783;48.824;8.662;2023-05-08T08:35:47;4.00;;;3.15;;
24650;SDS011;12783;48.824;8.662;2023-05-08T08:38:14;4.93;;;3.20;;
24650;SDS011;12783;48.824;8.662;2023-05-08T08:40:42;5.28;;;3.00;;
24650;SDS011;12783;48.824;8.662;2023-05-08T08:43:10;3.95;;;3.28;;
24650;SDS011;12783;48.824;8.662;2023-05-08T08:45:37;7.07;;;4.05;;
24650;SDS011;12783;48.824;8.662;2023-05-08T08:48:05;5.45;;;3.72;;
24650;SDS011;12783;48.824;8.662;2023-05-08T08:50:40;12.88;;;7.00;;
24650;SDS011;12783;48.824;8.662;2023-05-08T08:53:20;16.73;;;8.13;;
24650;SDS011;12783;48.824;8.662;2023-05-08T08:55:56;17.80;;;7.88;;
24650;SDS011;12783;48.824;8.662;2023-05-08T08:58:39;21.83;;;7.75;;
24650;SDS011;12783;48.824;8.662;2023-05-08T09:01:16;24.02;;;10.55;;
24650;SDS011;12783;48.824;8.662;2023-05-08T09:03:44;24.80;;;10.45;;
24650;SDS011;12783;48.824;8.662;2023-05-08T09:06:15;21.42;;;10.05;;
24650;SDS011;12783;48.824;8.662;2023-05-08T09:08:42;19.85;;;8.65;;
24650;SDS011;12783;48.824;8.662;2023-05-08T09:11:10;17.48;;;7.75;;
24650;SDS011;12783;48.824;8.662;2023-05-08T09:13:37;12.07;;;6.07;;
24650;SDS011;12783;48.824;8.662;2023-05-08T09:16:04;11.05;;;5.47;;
24650;SDS011;12783;48.824;8.662;2023-05-08T09:18:31;9.27;;;5.10;;
24650;SDS011;12783;48.824;8.662;2023-05-08T09:20:58;8.43;;;5.38;;
24650;SDS011;12783;48.824;8.662;2023-05-08T09:23:26;11.35;;;5.18;;
24650;SDS011;12783;48.824;8.662;2023-05-08T09:25:53;10.85;;;6.15;;
24650;SDS011;12783;48.824;8.662;2023-05-08T09:28:21;16.55;;;6.28;;
24650;SDS011;12783;48.824;8.662;2023-05-08T09:30:51;11.23;;;6.45;;
24650;SDS011;12783;48.824;8.662;2023-05-08T09:33:20;7.43;;;5.30;;
24650;SDS011;12783;48.824;8.662;2023-05-08T09:35:52;5.90;;;3.70;;
24650;SDS011;12783;48.824;8.662;2023-05-08T09:38:37;3.95;;;3.55;;
24650;SDS011;12783;48.824;8.662;2023-05-08T09:41:06;5.95;;;3.97;;
24650;SDS011;12783;48.824;8.662;2023-05-08T09:43:40;5.77;;;3.97;;
24650;SDS011;12783;48.824;8.662;2023-05-08T09:46:25;6.82;;;4.30;;
24650;SDS011;12783;48.824;8.662;2023-05-08T09:48:53;7.40;;;4.30;;
24650;SDS011;12783;48.824;8.662;2023-05-08T09:51:23;4.63;;;3.92;;
24650;SDS011;12783;48.824;8.662;2023-05-08T09:53:53;5.18;;;3.88;;
24650;SDS011;12783;48.824;8.662;2023-05-08T09:56:38;4.90;;;3.88;;
24650;SDS011;12783;48.824;8.662;2023-05-08T09:59:20;4.10;;;3.45;;
24650;SDS011;12783;48.824;8.662;2023-05-08T10:01:49;3.30;;;2.67;;
24650;SDS011;12783;48.824;8.662;2023-05-08T10:04:16;3.00;;;2.70;;
24650;SDS011;12783;48.824;8.662;2023-05-08T10:06:43;4.80;;;3.72;;
24650;SDS011;12783;48.824;8.662;2023-05-08T10:09:23;6.82;;;4.30;;
24650;SDS011;12783;48.824;8.662;2023-05-08T10:11:55;3.80;;;3.40;;
24650;SDS011;12783;48.824;8.662;2023-05-08T10:14:22;4.90;;;3.33;;
24650;SDS011;12783;48.824;8.662;2023-05-08T10:16:51;4.90;;;3.10;;
24650;SDS011;12783;48.824;8.662;2023-05-08T10:19:23;4.97;;;2.45;;
24650;SDS011;12783;48.824;8.662;2023-05-08T10:21:53;3.70;;;3.00;;
24650;SDS011;12783;48.824;8.662;2023-05-08T10:24:26;3.10;;;2.80;;
24650;SDS011;12783;48.824;8.662;2023-05-08T10:27:08;5.03;;;2.90;;
24650;SDS011;12783;48.824;8.662;2023-05-08T10:29:56;5.35;;;4.28;;
24650;SDS011;12783;48.824;8.662;2023-05-08T10:32:34;6.20;;;4.70;;
24650;SDS011;12783;48.824;8.662;2023-05-08T10:35:07;6.30;;;5.40;;
24650;SDS011;12783;48.824;8.662;2023-05-08T10:37:37;7.70;;;5.68;;
24650;SDS011;12783;48.824;8.662;2023-05-08T10:40:07;7.55;;;6.57;;
24650;SDS011;12783;48.824;8.662;2023-05-08T10:42:36;9.70;;;7.45;;
24650;SDS011;12783;48.824;8.662;2023-05-08T10:45:04;12.50;;;7.15;;
24650;SDS011;12783;48.824;8.662;2023-05-08T10:47:44;8.95;;;6.82;;
24650;SDS011;12783;48.824;8.662;2023-05-08T10:50:27;9.00;;;6.65;;
24650;SDS011;12783;48.824;8.662;2023-05-08T10:53:02;13.23;;;7.18;;
24650;SDS011;12783;48.824;8.662;2023-05-08T10:55:43;12.93;;;8.07;;
24650;SDS011;12783;48.824;8.662;2023-05-08T10:58:14;10.23;;;8.27;;
24650;SDS011;12783;48.824;8.662;2023-05-08T11:03:17;14.75;;;9.43;;
24650;SDS011;12783;48.824;8.662;2023-05-08T11:05:57;17.60;;;8.65;;
24650;SDS011;12783;48.824;8.662;2023-05-08T11:08:26;9.43;;;7.30;;
24650;SDS011;12783;48.824;8.662;2023-05-08T11:13:36;8.90;;;6.80;;
24650;SDS011;12783;48.824;8.662;2023-05-08T11:16:06;9.15;;;6.95;;
24650;SDS011;12783;48.824;8.662;2023-05-08T11:18:36;9.90;;;7.65;;
24650;SDS011;12783;48.824;8.662;2023-05-08T11:21:15;9.15;;;7.32;;
24650;SDS011;12783;48.824;8.662;2023-05-08T11:23:55;9.00;;;7.63;;
24650;SDS011;12783;48.824;8.662;2023-05-08T11:26:38;10.38;;;7.70;;
24650;SDS011;12783;48.824;8.662;2023-05-08T11:29:16;10.40;;;8.43;;
24650;SDS011;12783;48.824;8.662;2023-05-08T11:31:50;11.23;;;8.65;;
24650;SDS011;12783;48.824;8.662;2023-05-08T11:37:08;10.63;;;8.52;;
24650;SDS011;12783;48.824;8.662;2023-05-08T11:39:49;10.05;;;8.05;;
24650;SDS011;12783;48.824;8.662;2023-05-08T11:45:06;16.05;;;9.68;;
24650;SDS011;12783;48.824;8.662;2023-05-08T11:50:07;12.13;;;8.48;;
24650;SDS011;12783;48.824;8.662;2023-05-08T11:52:37;13.20;;;8.75;;
24650;SDS011;12783;48.824;8.662;2023-05-08T11:55:07;9.80;;;7.00;;
24650;SDS011;12783;48.824;8.662;2023-05-08T11:57:38;9.48;;;7.28;;
24650;SDS011;12783;48.824;8.662;2023-05-08T12:00:05;9.60;;;8.40;;
24650;SDS011;12783;48.824;8.662;2023-05-08T12:02:35;7.70;;;6.47;;
24650;SDS011;12783;48.824;8.662;2023-05-08T12:05:07;8.85;;;7.63;;
24650;SDS011;12783;48.824;8.662;2023-05-08T12:07:43;7.82;;;6.57;;
24650;SDS011;12783;48.824;8.662;2023-05-08T12:10:12;7.53;;;6.40;;
24650;SDS011;12783;48.824;8.662;2023-05-08T12:12:42;7.03;;;5.90;;
24650;SDS011;12783;48.824;8.662;2023-05-08T12:15:13;7.88;;;5.90;;
24650;SDS011;12783;48.824;8.662;2023-05-08T12:17:40;7.60;;;5.75;;
24650;SDS011;12783;48.824;8.662;2023-05-08T12:20:11;5.55;;;3.92;;
24650;SDS011;12783;48.824;8.662;2023-05-08T12:22:48;5.05;;;3.60;;
24650;SDS011;12783;48.824;8.662;2023-05-08T12:25:17;5.07;;;4.43;;
24650;SDS011;12783;48.824;8.662;2023-05-08T12:27:45;3.00;;;2.70;;
24650;SDS011;12783;48.824;8.662;2023-05-08T12:30:12;3.10;;;2.33;;
24650;SDS011;12783;48.824;8.662;2023-05-08T12:32:42;4.80;;;2.30;;
24650;SDS011;12783;48.824;8.662;2023-05-08T12:35:10;2.30;;;2.00;;
24650;SDS011;12783;48.824;8.662;2023-05-08T12:37:38;2.55;;;2.35;;
24650;SDS011;12783;48.824;8.662;2023-05-08T12:40:06;4.32;;;2.63;;
24650;SDS011;12783;48.824;8.662;2023-05-08T12:42:49;2.83;;;2.55;;
24650;SDS011;12783;48.824;8.662;2023-05-08T12:48:08;2.95;;;2.63;;
24650;SDS011;12783;48.824;8.662;2023-05-08T12:50:43;9.82;;;2.90;;
24650;SDS011;12783;48.824;8.662;2023-05-08T12:53:18;2.53;;;2.33;;
24650;SDS011;12783;48.824;8.662;2023-05-08T12:55:57;3.80;;;2.50;;
24650;SDS011;12783;48.824;8.662;2023-05-08T12:58:30;2.25;;;1.85;;
24650;SDS011;12783;48.824;8.662;2023-05-08T13:01:08;2.55;;;2.33;;
24650;SDS011;12783;48.824;8.662;2023-05-08T13:03:39;2.70;;;2.28;;
24650;SDS011;12783;48.824;8.662;2023-05-08T13:06:06;3.70;;;2.13;;
24650;SDS011;12783;48.824;8.662;2023-05-08T13:08:51;3.85;;;2.10;;
24650;SDS011;12783;48.824;8.662;2023-05-08T13:11:29;4.45;;;2.33;;
24650;SDS011;12783;48.824;8.662;2023-05-08T13:13:58;2.70;;;1.88;;
24650;SDS011;12783;48.824;8.662;2023-05-08T13:16:25;2.20;;;2.00;;
24650;SDS011;12783;48.824;8.662;2023-05-08T13:18:52;1.95;;;1.75;;
24650;SDS011;12783;48.824;8.662;2023-05-08T13:21:19;1.98;;;1.77;;
24650;SDS011;12783;48.824;8.662;2023-05-08T13:23:46;3.33;;;2.20;;
24650;SDS011;12783;48.824;8.662;2023-05-08T13:26:13;3.25;;;2.20;;
24650;SDS011;12783;48.824;8.662;2023-05-08T13:28:39;2.22;;;1.92;;
24650;SDS011;12783;48.824;8.662;2023-05-08T13:31:06;3.25;;;2.00;;
24650;SDS011;12783;48.824;8.662;2023-05-08T13:33:33;2.40;;;2.20;;
24650;SDS011;12783;48.824;8.662;2023-05-08T13:36:00;2.40;;;2.08;;
24650;SDS011;12783;48.824;8.662;2023-05-08T13:38:27;2.78;;;2.10;;
24650;SDS011;12783;48.824;8.662;2023-05-08T13:40:54;2.67;;;2.00;;
24650;SDS011;12783;48.824;8.662;2023-05-08T13:43:21;2.10;;;1.90;;
24650;SDS011;12783;48.824;8.662;2023-05-08T13:45:48;6.18;;;3.65;;
24650;SDS011;12783;48.824;8.662;2023-05-08T13:48:15;11.35;;;6.97;;
24650;SDS011;12783;48.824;8.662;2023-05-08T13:50:41;12.63;;;7.82;;
24650;SDS011;12783;48.824;8.662;2023-05-08T13:53:08;14.13;;;8.88;;
24650;SDS011;12783;48.824;8.662;2023-05-08T13:55:35;11.75;;;9.23;;
24650;SDS011;12783;48.824;8.662;2023-05-08T13:58:02;12.10;;;8.52;;
24650;SDS011;12783;48.824;8.662;2023-05-08T14:00:29;14.48;;;9.27;;
24650;SDS011;12783;48.824;8.662;2023-05-08T14:02:55;12.60;;;9.75;;
24650;SDS011;12783;48.824;8.662;2023-05-08T14:05:22;11.95;;;8.45;;
24650;SDS011;12783;48.824;8.662;2023-05-08T14:07:49;13.13;;;8.85;;
24650;SDS011;12783;48.824;8.662;2023-05-08T14:10:16;10.73;;;8.45;;
24650;SDS011;12783;48.824;8.662;2023-05-08T14:12:43;11.35;;;8.77;;
24650;SDS011;12783;48.824;8.662;2023-05-08T14:15:11;12.23;;;9.15;;
24650;SDS011;12783;48.824;8.662;2023-05-08T14:17:38;13.35;;;10.35;;
24650;SDS011;12783;48.824;8.662;2023-05-08T14:20:07;20.40;;;12.68;;
24650;SDS011;12783;48.824;8.662;2023-05-08T14:22:37;32.38;;;13.45;;
24650;SDS011;12783;48.824;8.662;2023-05-08T14:25:04;27.58;;;15.38;;
24650;SDS011;12783;48.824;8.662;2023-05-08T14:27:32;38.17;;;16.48;;
24650;SDS011;12783;48.824;8.662;2023-05-08T14:29:59;101.28;;;19.60;;
24650;SDS011;12783;48.824;8.662;2023-05-08T14:32:26;42.78;;;16.08;;
24650;SDS011;12783;48.824;8.662;2023-05-08T14:34:53;169.90;;;23.40;;
24650;SDS011;12783;48.824;8.662;2023-05-08T14:37:20;91.25;;;21.30;;
24650;SDS011;12783;48.824;8.662;2023-05-08T14:39:47;81.05;;;21.98;;
24650;SDS011;12783;48.824;8.662;2023-05-08T14:42:15;87.82;;;20.50;;
24650;SDS011;12783;48.824;8.662;2023-05-08T14:44:49;73.22;;;21.95;;
24650;SDS011;12783;48.824;8.662;2023-05-08T14:47:16;78.75;;;22.02;;
24650;SDS011;12783;48.824;8.662;2023-05-08T14:49:43;50.30;;;18.70;;
24650;SDS011;12783;48.824;8.662;2023-05-08T14:52:10;86.53;;;25.27;;
24650;SDS011;12783;48.824;8.662;2023-05-08T14:54:37;131.05;;;28.73;;
24650;SDS011;12783;48.824;8.662;2023-05-08T14:57:04;173.57;;;33.42;;
24650;SDS011;12783;48.824;8.662;2023-05-08T14:59:31;71.50;;;22.85;;
24650;SDS011;12783;48.824;8.662;2023-05-08T15:01:58;94.35;;;24.40;;
24650;SDS011;12783;48.824;8.662;2023-05-08T15:04:25;124.25;;;29.65;;
24650;SDS011;12783;48.824;8.662;2023-05-08T15:06:52;86.55;;;26.42;;
24650;SDS011;12783;48.824;8.662;2023-05-08T15:09:19;85.13;;;23.92;;
24650;SDS011;12783;48.824;8.662;2023-05-08T15:11:45;107.07;;;27.02;;
24650;SDS011;12783;48.824;8.662;2023-05-08T15:14:12;102.20;;;28.50;;
24650;SDS011;12783;48.824;8.662;2023-05-08T15:16:39;51.90;;;20.38;;
24650;SDS011;12783;48.824;8.662;2023-05-08T15:19:06;50.75;;;22.00;;
24650;SDS011;12783;48.824;8.662;2023-05-08T15:21:34;51.83;;;21.70;;
24650;SDS011;12783;48.824;8.662;2023-05-08T15:24:01;66.75;;;24.13;;
24650;SDS011;12783;48.824;8.662;2023-05-08T15:26:28;53.67;;;23.98;;
24650;SDS011;12783;48.824;8.662;2023-05-08T15:28:55;49.88;;;22.35;;
24650;SDS011;12783;48.824;8.662;2023-05-08T15:31:22;45.17;;;21.80;;
24650;SDS011;12783;48.824;8.662;2023-05-08T15:33:49;66.18;;;24.75;;
24650;SDS011;12783;48.824;8.662;2023-05-08T15:36:15;65.63;;;26.05;;